Flight Track Log - Related Links

Times and Time Zones

All times are in EDT time to prevent confusion due to time zone crossing. See the EJA951 flight status page for this flight to view local times or setup timezone preferences in your user account.

Time Position Orientation Groundspeed Altitude Reporting Facility
EDT Latitude Longitude Course Direction KTS km/h feet Rate Location/Type
Fri 14:11:49 35.0417 -106.6056 North 161 298 6.200  Level Albuquerque Center
Fri 14:13:04 35.1125 -106.5978 North 299 554 9.200 2.847 Climbing Albuquerque Center
Fri 14:14:06 35.2178 -106.6197 350° North 326 604 12.700 3.194 Climbing Albuquerque Center
Fri 14:15:08 35.2919 -106.7039 317° Northwest 370 686 15.800 2.634 Climbing Albuquerque Center
Fri 14:16:09 35.3700 -106.7956 316° Northwest 388 719 18.100 2.049 Climbing Albuquerque Center
Fri 14:17:11 35.4639 -106.8717 327° Northwest 412 763 20.000 1.742 Climbing Albuquerque Center
Fri 14:18:13 35.5692 -106.9283 336° Northwest 413 764 21.700 1.694 Climbing Albuquerque Center
Fri 14:19:15 35.6917 -106.9911 337° Northwest 420 777 23.500 1.500 Climbing Albuquerque Center
Fri 14:20:17 35.8194 -107.0558 338° Northwest 437 810 24.800 1.258 Climbing Albuquerque Center
Fri 14:21:19 35.9292 -107.1125 337° Northwest 445 824 26.100 1.161 Climbing Albuquerque Center
Fri 14:22:21 36.0475 -107.1728 338° Northwest 455 843 27.200 1.065 Climbing Albuquerque Center
Fri 14:23:23 36.1769 -107.2403 337° Northwest 465 861 28.300 1.122 Climbing Albuquerque Center
Fri 14:24:24 36.3119 -107.3106 337° Northwest 471 872 29.500 1.073 Climbing Albuquerque Center
Fri 14:25:26 36.4300 -107.3708 338° Northwest 476 882 30.500 1.065 Climbing Albuquerque Center
Fri 14:26:28 36.5483 -107.4325 337° Northwest 480 888 31.700 1.597 Climbing Albuquerque Center
Fri 14:27:30 36.6847 -107.5053 337° Northwest 478 885 33.800 2.078 Climbing Albuquerque Center
Fri 14:29:01 36.8489 -107.5906 337° Northwest 451 835 37.000 1.843 Climbing Denver Center
Fri 14:30:03 36.9772 -107.6564 338° Northwest 449 832 38.500 1.248 Climbing Denver Center
Fri 14:31:06 37.0917 -107.7183 337° Northwest 464 859 39.600 720 Climbing Denver Center
Fri 14:32:08 37.2297 -107.7911 337° Northwest 483 895 40.000 194 Climbing Denver Center
Fri 14:33:10 37.3539 -107.8592 336° Northwest 505 935 40.000  Level Denver Center
Fri 14:34:12 37.5036 -107.9289 340° North 514 953 40.000  Level Denver Center
Fri 14:35:14 37.6319 -107.9619 348° North 496 919 40.000  Level Denver Center
Fri 14:36:16 37.7775 -108.0056 347° North 483 895 40.000  Level Denver Center
Fri 14:37:18 37.9039 -108.0411 347° North 486 900 40.000  Level Denver Center
Fri 14:38:20 38.0517 -108.0831 347° North 489 906 40.000  Level Denver Center
Fri 14:39:22 38.1800 -108.1606 335° Northwest 492 911 40.000  Level Denver Center
Fri 14:40:24 38.2933 -108.2408 331° Northwest 488 904 40.000  Level Denver Center
Fri 14:41:26 38.4258 -108.3358 331° Northwest 489 906 40.000  Level Denver Center
Fri 14:42:27 38.5378 -108.4164 331° Northwest 482 893 40.000  Level Denver Center
Fri 14:43:29 38.6506 -108.4967 331° Northwest 482 893 40.000  Level Denver Center
Fri 14:44:31 38.7806 -108.5919 330° Northwest 481 892 40.000  Level Denver Center
Fri 14:45:33 38.8919 -108.6728 331° Northwest 480 888 40.000  Level Denver Center
Fri 14:46:35 39.0228 -108.7669 331° Northwest 480 888 40.000  Level Denver Center
Fri 14:47:37 39.1425 -108.8239 340° North 480 888 40.000  Level Denver Center
Fri 14:48:39 39.2872 -108.8756 345° North 480 888 40.000  Level Denver Center
Fri 14:49:41 39.4119 -108.9200 345° North 482 893 40.000  Level Denver Center
Fri 14:50:55 39.5367 -108.9650 344° North 479 887 40.000  Level Denver Center
Fri 14:51:57 39.7056 -109.0272 344° North 485 898 40.000  Level Denver Center
Fri 14:52:59 39.8297 -109.0692 345° North 478 885 40.000  Level Denver Center
Fri 14:54:00 39.9733 -109.1219 344° North 478 885 40.000  Level Denver Center
Fri 14:55:02 40.0961 -109.1661 345° North 477 884 40.000  Level Denver Center
Fri 14:56:04 40.2383 -109.2189 344° North 476 882 40.000  Level Denver Center
Fri 14:57:06 40.3603 -109.2631 345° North 475 880 40.000  Level Denver Center
Fri 14:58:08 40.5033 -109.3175 344° North 479 887 40.000  Level Denver Center
Fri 14:59:10 40.6258 -109.3622 345° North 479 887 40.000  Level Denver Center
Fri 15:00:12 40.7506 -109.4089 344° North 479 887 40.000  Level Denver Center
Fri 15:01:26 40.8944 -109.4619 344° North 480 888 40.000  Level Denver Center
Fri 15:02:28 41.0383 -109.5172 344° North 481 892 40.000  Level Denver Center
Fri 15:03:37 41.2028 -109.5792 344° North 482 893 40.000  Level Salt Lake Center
Fri 15:04:39 41.3269 -109.6272 344° North 482 893 40.000  Level Salt Lake Center
Fri 15:05:41 41.4522 -109.6728 345° North 483 895 40.000  Level Salt Lake Center
Fri 15:06:43 41.5972 -109.7294 344° North 483 895 40.000  Level Salt Lake Center
Fri 15:07:45 41.7217 -109.7772 344° North 483 895 40.000  Level Salt Lake Center
Fri 15:08:47 41.8661 -109.8319 344° North 482 893 40.000  Level Salt Lake Center
Fri 15:09:49 41.9892 -109.8806 344° North 481 892 40.000  Level Salt Lake Center
Fri 15:10:51 42.1319 -109.9364 344° North 479 887 40.000  Level Salt Lake Center
Fri 15:11:53 42.2531 -109.9839 344° North 475 880 40.000  Level Salt Lake Center
Fri 15:12:55 42.3958 -110.0411 344° North 478 885 40.000  Level Salt Lake Center
Fri 15:13:57 42.5172 -110.0878 344° North 473 875 40.000  Level Salt Lake Center
Fri 15:14:59 42.6606 -110.1389 345° North 476 882 40.000  Level Salt Lake Center
Fri 15:16:01 42.7931 -110.1797 347° North 474 877 40.000  Level Salt Lake Center
Fri 15:17:03 42.9164 -110.2181 347° North 475 880 40.000  Level Salt Lake Center
Fri 15:18:05 43.0592 -110.2628 347° North 472 874 40.000  Level Salt Lake Center
Fri 15:19:07 43.1819 -110.3014 347° North 472 874 40.000  Level Salt Lake Center
Fri 15:20:09 43.3161 -110.3394 348° North 473 875 40.000  Level Salt Lake Center
Fri 15:21:11 43.4383 -110.3781 347° North 473 875 40.000  Level Salt Lake Center
Fri 15:22:14 43.5689 -110.4200 347° North 470 871 40.000  Level Salt Lake Center
Fri 15:23:16 43.7125 -110.4642 347° North 473 875 40.000  Level Salt Lake Center
Fri 15:24:18 43.8364 -110.5047 347° North 476 882 40.000 -919 Level Salt Lake Center
Fri 15:25:20 43.9797 -110.5531 346° North 476 882 38.100 -2.177 Descending Salt Lake Center
Fri 15:26:22 44.1014 -110.5928 347° North 471 872 35.500 -2.758 Descending Salt Lake Center
Fri 15:27:24 44.2450 -110.6392 347° North 475 880 32.400 -2.806 Descending Salt Lake Center
Fri 15:28:26 44.3719 -110.6772 348° North 487 901 29.700 -3.000 Descending Salt Lake Center
Fri 15:29:28 44.5192 -110.7292 346° North 489 906 26.200 -3.339 Descending Salt Lake Center
Fri 15:30:30 44.6458 -110.7719 346° North 491 909 22.800 -3.581 Descending Salt Lake Center
Fri 15:31:32 44.7828 -110.8181 347° North 459 850 18.800 -2.806 Descending Salt Lake Center
Fri 15:32:34 44.8950 -110.8539 347° North 440 814 17.000 -871 Descending Salt Lake Center
Fri 15:33:36 45.0233 -110.8975 346° North 430 797 17.000  Level Salt Lake Center
Fri 15:34:38 45.1447 -110.9361 347° North 430 797 17.000 -1.258 Level Salt Lake Center
Fri 15:35:40 45.2594 -110.9747 347° North 427 790 14.400 -1.935 Descending Salt Lake Center
Fri 15:36:42 45.3622 -111.0103 346° North 391 724 13.000 -677 Descending Salt Lake Center
Fri 15:37:44 45.4578 -111.0314 351° North 354 655 13.000 -581 Level Salt Lake Center
Fri 15:38:46 45.5378 -111.0453 353° North 301 557 11.800 -2.565 Descending Salt Lake Center
Fri 15:39:48 45.6250 -111.0614 353° North 277 513 7.700 -2.855 Descending Salt Lake Center
Fri 15:40:50 45.6894 -111.0742 352° North 256 475 5.900 -1.113 Descending Salt Lake Center
Fri 15:41:52 45.7381 -111.0975 341° North 217 402 5.400 -629 Descending Salt Lake Center
Fri 15:42:54 45.7678 -111.1394 315° West 172 319 4.600 -774 Descending Salt Lake Center

Login

Don't have an account? Register now (free) for customized features, flight alerts, and more!